Terminal Aerodrome Forecast
Issued by NWS

Current Version | Previous Version | Graphics & Text | Print | Product List | Glossary On
Versions: 1 2 3 4 5 6 7 8 9 10 11 12 13 14 15 16 17 18 19 20 21 22 23 24 25 26 27 28
000
FTUS41 KILN 141100
TAFLUK
TAF
KLUK 141129Z 1412/1512 00000KT P6SM SCT250
      TEMPO 1412/1413 1SM BR SCT002
     FM141300 VRB03KT P6SM SCT250
      TEMPO 1510/1512 3SM BR SCT150=

USA.gov is the U.S. government's official web portal to all federal, state and local government web resources and services.